createdAt,value
2024-04-26T00:01:08.427Z,4.50
2024-04-26T00:04:00.918Z,4.60
2024-04-26T00:06:47.061Z,4.40
2024-04-26T00:09:33.448Z,5.70
2024-04-26T00:12:19.980Z,5.30
2024-04-26T00:15:07.851Z,5.60
2024-04-26T00:17:54.419Z,6.10
2024-04-26T00:20:40.658Z,5.40
2024-04-26T00:23:30.108Z,5.90
2024-04-26T00:26:16.637Z,5.70
2024-04-26T00:29:03.448Z,6.70
2024-04-26T00:31:49.677Z,5.00
2024-04-26T00:34:35.957Z,4.80
2024-04-26T00:37:22.305Z,4.80
2024-04-26T00:40:10.001Z,5.30
2024-04-26T00:42:56.669Z,4.70
2024-04-26T00:45:43.759Z,5.00
2024-04-26T00:48:30.122Z,5.30
2024-04-26T00:51:18.069Z,5.30
2024-04-26T00:54:06.390Z,4.30
2024-04-26T00:56:59.376Z,5.20
2024-04-26T00:59:46.028Z,5.00
2024-04-26T01:02:36.068Z,4.70
2024-04-26T01:05:22.524Z,4.20
2024-04-26T01:08:11.585Z,4.30
2024-04-26T01:11:00.708Z,4.60
2024-04-26T01:23:08.316Z,4.30
2024-04-26T01:26:04.108Z,4.40
2024-04-26T01:28:51.466Z,4.20
2024-04-26T01:31:38.295Z,4.90
2024-04-26T01:34:24.364Z,4.80
2024-04-26T01:37:10.481Z,4.20
2024-04-26T01:39:56.593Z,3.70
2024-04-26T01:42:42.776Z,5.50
2024-04-26T01:45:29.277Z,4.90
2024-04-26T01:48:15.591Z,4.90
2024-04-26T01:51:01.754Z,4.60
2024-04-26T01:53:48.233Z,4.50
2024-04-26T01:56:34.504Z,4.40
2024-04-26T01:59:21.705Z,5.10
2024-04-26T02:02:07.963Z,4.80
2024-04-26T02:04:54.265Z,5.00
2024-04-26T02:07:43.509Z,4.80
2024-04-26T02:10:31.050Z,2.90
2024-04-26T02:17:43.233Z,4.40
2024-04-26T02:20:30.976Z,3.40
2024-04-26T02:23:17.465Z,4.00
2024-04-26T02:31:00.873Z,5.00
2024-04-26T02:33:46.982Z,4.40
2024-04-26T02:36:33.130Z,4.10
2024-04-26T02:39:19.684Z,5.40
2024-04-26T02:42:06.533Z,4.30
2024-04-26T02:44:52.887Z,4.20
2024-04-26T02:47:39.217Z,4.30
2024-04-26T02:50:25.514Z,5.00
2024-04-26T02:53:12.103Z,4.30
2024-04-26T02:56:01.407Z,4.90
2024-04-26T02:58:47.900Z,4.20
2024-04-26T03:01:34.949Z,4.40
2024-04-26T03:04:21.735Z,3.90
2024-04-26T03:07:09.693Z,3.60
2024-04-26T03:09:56.018Z,4.10
2024-04-26T03:12:42.586Z,4.40
2024-04-26T03:15:29.164Z,4.30
2024-04-26T03:18:15.758Z,4.30
2024-04-26T03:21:05.390Z,3.80
2024-04-26T03:23:54.709Z,4.10
2024-04-26T03:26:42.325Z,4.70
2024-04-26T03:29:28.457Z,3.10
2024-04-26T03:32:14.970Z,4.50
2024-04-26T03:35:01.592Z,4.90
2024-04-26T03:37:49.757Z,3.70
2024-04-26T03:40:35.957Z,4.00
2024-04-26T03:43:24.313Z,4.00
2024-04-26T03:46:10.866Z,4.50
2024-04-26T03:48:56.929Z,4.00
2024-04-26T03:55:56.376Z,3.90
2024-04-26T03:58:44.036Z,3.80
2024-04-26T04:01:30.495Z,2.80
2024-04-26T04:04:18.756Z,3.90
2024-04-26T04:07:05.326Z,3.80
2024-04-26T04:09:51.247Z,4.80
2024-04-26T04:12:37.590Z,4.20
2024-04-26T04:15:24.110Z,3.60
2024-04-26T04:18:11.362Z,3.80
2024-04-26T04:20:57.494Z,3.40
2024-04-26T04:23:44.649Z,3.80
2024-04-26T04:26:31.595Z,4.90
2024-04-26T04:29:20.975Z,4.90
2024-04-26T04:32:07.420Z,5.30
2024-04-26T04:37:51.239Z,5.50
2024-04-26T04:40:39.095Z,5.00
2024-04-26T04:43:25.416Z,3.00
2024-04-26T04:46:11.613Z,4.30
2024-04-26T04:48:58.150Z,3.40
2024-04-26T04:51:44.457Z,3.50
2024-04-26T04:54:30.975Z,2.20
2024-04-26T04:57:17.647Z,4.00
2024-04-26T05:00:06.549Z,3.70
2024-04-26T05:02:58.188Z,3.20
2024-04-26T05:05:44.970Z,4.40
2024-04-26T05:09:21.323Z,3.30
2024-04-26T05:12:11.961Z,3.20
2024-04-26T05:14:58.079Z,3.70
2024-04-26T05:17:51.465Z,3.80
2024-04-26T05:24:52.688Z,2.90
2024-04-26T05:27:38.730Z,2.30
2024-04-26T05:30:25.466Z,2.80
2024-04-26T05:33:11.869Z,2.20
2024-04-26T05:35:58.434Z,2.50
2024-04-26T05:38:45.007Z,2.90
2024-04-26T05:41:31.335Z,3.00
2024-04-26T05:44:17.688Z,3.20
2024-04-26T05:47:03.972Z,3.60
2024-04-26T05:49:50.300Z,2.60
2024-04-26T05:52:36.623Z,2.80
2024-04-26T05:55:23.223Z,2.30
2024-04-26T05:58:09.962Z,2.60
2024-04-26T06:00:56.083Z,2.60
2024-04-26T06:03:42.933Z,2.70
2024-04-26T06:06:31.597Z,2.20
2024-04-26T06:09:21.907Z,2.70
2024-04-26T06:14:56.308Z,1.90
2024-04-26T06:17:42.873Z,1.90
2024-04-26T06:20:31.868Z,1.70
2024-04-26T06:23:18.526Z,1.80
2024-04-26T06:26:04.917Z,2.10
2024-04-26T06:28:52.090Z,3.00
2024-04-26T06:31:44.835Z,2.00
2024-04-26T06:34:31.327Z,1.70
2024-04-26T06:37:17.608Z,1.80
2024-04-26T06:40:03.989Z,2.10
2024-04-26T06:42:50.251Z,1.90
2024-04-26T06:45:38.941Z,2.00
2024-04-26T06:48:25.438Z,1.90
2024-04-26T06:51:13.135Z,1.70
2024-04-26T06:54:00.160Z,1.60
2024-04-26T06:56:47.091Z,2.10
2024-04-26T06:59:33.563Z,2.00
2024-04-26T07:02:20.110Z,1.80
2024-04-26T07:05:07.467Z,1.80
2024-04-26T07:07:53.655Z,1.50
2024-04-26T07:10:40.658Z,1.40
2024-04-26T07:13:26.783Z,1.90
2024-04-26T07:16:39.867Z,1.80
2024-04-26T07:19:28.487Z,1.40
2024-04-26T07:22:14.537Z,1.20
2024-04-26T07:25:01.057Z,1.40
2024-04-26T07:27:46.958Z,1.60
2024-04-26T07:30:33.406Z,1.30
2024-04-26T07:33:27.394Z,1.20
2024-04-26T07:36:16.942Z,1.50
2024-04-26T07:39:03.632Z,1.50
2024-04-26T07:41:49.875Z,1.40
2024-04-26T07:44:36.031Z,1.00
2024-04-26T07:47:24.201Z,1.30
2024-04-26T07:50:11.020Z,1.20
2024-04-26T07:52:57.265Z,0.90
2024-04-26T07:55:43.805Z,1.30
2024-04-26T07:58:32.850Z,1.50
2024-04-26T08:01:20.434Z,1.20
2024-04-26T08:04:07.504Z,1.00
2024-04-26T08:06:53.844Z,0.90
2024-04-26T08:09:40.248Z,1.20
2024-04-26T08:12:26.347Z,1.30
2024-04-26T08:15:12.718Z,1.30
2024-04-26T08:17:59.404Z,1.10
2024-04-26T08:20:47.590Z,1.40
2024-04-26T08:23:33.940Z,1.10
2024-04-26T08:26:20.107Z,1.10
2024-04-26T08:29:06.507Z,1.10
2024-04-26T08:31:54.687Z,1.00
2024-04-26T08:34:42.612Z,1.10
2024-04-26T08:37:28.615Z,1.30
2024-04-26T08:40:14.867Z,0.80
2024-04-26T08:43:03.369Z,1.00
2024-04-26T08:49:23.078Z,0.90
2024-04-26T08:52:16.191Z,1.20
2024-04-26T08:55:02.826Z,0.70
2024-04-26T08:57:50.543Z,1.00
2024-04-26T09:00:37.384Z,0.60
2024-04-26T09:03:28.423Z,0.50
2024-04-26T09:06:17.975Z,0.60
2024-04-26T09:09:08.050Z,0.50
2024-04-26T09:12:01.140Z,0.60
2024-04-26T09:14:50.387Z,0.70
2024-04-26T09:17:37.089Z,0.70
2024-04-26T09:20:27.863Z,0.50
2024-04-26T09:23:15.701Z,0.60
2024-04-26T09:26:07.572Z,0.60
2024-04-26T09:28:53.798Z,0.50
2024-04-26T09:31:43.564Z,0.80
2024-04-26T09:34:32.844Z,0.60
2024-04-26T09:40:09.209Z,0.80
2024-04-26T09:42:56.635Z,1.00
2024-04-26T09:45:43.162Z,0.70
2024-04-26T09:48:30.410Z,0.60
2024-04-26T09:51:18.785Z,0.40
2024-04-26T09:54:11.495Z,0.30
2024-04-26T09:56:57.827Z,0.60
2024-04-26T09:59:44.986Z,0.60
2024-04-26T10:02:32.230Z,0.50
2024-04-26T10:05:23.374Z,0.40
2024-04-26T10:08:11.037Z,0.50
2024-04-26T10:11:25.664Z,0.50
2024-04-26T10:14:30.534Z,0.30
2024-04-26T10:17:20.568Z,0.70
2024-04-26T10:20:07.706Z,0.60
2024-04-26T10:23:01.608Z,0.60
2024-04-26T10:25:47.906Z,0.30
2024-04-26T10:28:34.691Z,0.60
2024-04-26T10:31:30.854Z,0.70
2024-04-26T10:34:18.116Z,0.50
2024-04-26T10:37:20.978Z,0.70
2024-04-26T10:42:54.657Z,0.60
2024-04-26T10:45:42.131Z,0.80
2024-04-26T10:48:36.358Z,0.50
2024-04-26T10:51:28.277Z,0.70
2024-04-26T10:54:18.113Z,0.60
2024-04-26T10:57:06.110Z,0.80
2024-04-26T11:00:04.205Z,1.00
2024-04-26T11:02:51.156Z,0.50
2024-04-26T11:05:45.413Z,0.70
2024-04-26T11:08:31.957Z,0.60
2024-04-26T11:11:20.164Z,0.70
2024-04-26T11:14:08.663Z,0.60
2024-04-26T11:16:57.291Z,0.60
2024-04-26T11:19:45.204Z,0.50
2024-04-26T11:22:31.797Z,0.50
2024-04-26T11:25:17.897Z,0.70
2024-04-26T11:28:04.631Z,0.50
2024-04-26T11:30:50.950Z,0.40
2024-04-26T11:33:43.860Z,0.50
2024-04-26T11:36:33.008Z,0.50
2024-04-26T11:39:19.359Z,0.60
2024-04-26T11:42:06.258Z,0.50
2024-04-26T11:44:55.019Z,0.60
2024-04-26T11:47:41.814Z,0.50
2024-04-26T11:50:31.303Z,0.60
2024-04-26T11:53:17.442Z,0.50
2024-04-26T11:56:24.997Z,0.40
2024-04-26T11:59:13.279Z,0.50
2024-04-26T12:01:59.682Z,0.30
2024-04-26T12:04:47.227Z,0.30
2024-04-26T12:07:33.906Z,0.40
2024-04-26T12:10:21.148Z,0.20
2024-04-26T12:13:07.542Z,0.40
2024-04-26T12:15:53.714Z,0.60
2024-04-26T12:18:39.957Z,0.40
2024-04-26T12:21:28.223Z,0.50
2024-04-26T12:24:15.264Z,0.20
2024-04-26T12:27:08.761Z,0.20
2024-04-26T12:29:57.188Z,0.20
2024-04-26T12:32:43.761Z,0.30
2024-04-26T12:35:37.884Z,0.20
2024-04-26T12:38:24.948Z,0.20
2024-04-26T12:41:11.644Z,0.30
2024-04-26T12:44:50.820Z,0.30
2024-04-26T12:47:37.583Z,0.30
2024-04-26T12:50:26.703Z,0.20
2024-04-26T12:53:13.289Z,0.40
2024-04-26T12:55:59.286Z,0.40
2024-04-26T12:58:45.530Z,1.40
2024-04-26T13:01:31.858Z,0.50
2024-04-26T13:04:19.272Z,0.30
2024-04-26T13:07:06.105Z,0.60
2024-04-26T13:09:59.090Z,0.20
2024-04-26T13:12:46.687Z,0.30
2024-04-26T13:15:35.288Z,0.50
2024-04-26T13:18:21.964Z,0.30
2024-04-26T13:21:08.651Z,0.30
2024-04-26T13:23:55.246Z,0.40
2024-04-26T13:26:48.215Z,0.30
2024-04-26T13:29:35.146Z,0.20
2024-04-26T13:32:24.308Z,0.40
2024-04-26T13:35:10.431Z,0.40
2024-04-26T13:37:57.577Z,0.40
2024-04-26T13:40:43.686Z,0.60
2024-04-26T13:43:34.232Z,0.40
2024-04-26T13:46:21.707Z,0.20
2024-04-26T13:49:07.976Z,0.40
2024-04-26T13:51:54.468Z,0.40
2024-04-26T13:54:40.890Z,0.50
2024-04-26T13:57:31.803Z,0.40
2024-04-26T14:00:17.968Z,1.10
2024-04-26T14:03:06.951Z,0.30
2024-04-26T14:05:54.161Z,0.60
2024-04-26T14:08:46.317Z,0.40
2024-04-26T14:11:32.938Z,0.60
2024-04-26T14:14:19.506Z,0.60
2024-04-26T14:17:05.838Z,0.60
2024-04-26T14:19:52.664Z,0.50
2024-04-26T14:22:40.027Z,1.10
2024-04-26T14:25:26.501Z,1.10
2024-04-26T14:28:12.532Z,0.80
2024-04-26T14:30:58.980Z,0.60
2024-04-26T14:33:53.023Z,0.70
2024-04-26T14:36:39.764Z,0.80
2024-04-26T14:39:28.365Z,1.40
2024-04-26T14:42:14.439Z,0.70
2024-04-26T14:45:01.119Z,0.80
2024-04-26T14:47:47.231Z,0.60
2024-04-26T14:50:37.406Z,0.90
2024-04-26T14:53:23.834Z,0.80
2024-04-26T14:56:10.111Z,0.60
2024-04-26T14:58:56.850Z,0.80
2024-04-26T15:01:42.959Z,0.60
2024-04-26T15:04:29.240Z,0.70
2024-04-26T15:07:16.700Z,0.70
2024-04-26T15:10:28.380Z,0.70
2024-04-26T15:13:16.398Z,0.70
2024-04-26T15:16:02.498Z,0.80
2024-04-26T15:18:53.455Z,0.60
2024-04-26T15:21:39.369Z,0.60
2024-04-26T15:24:25.732Z,0.90
2024-04-26T15:27:12.844Z,1.10
2024-04-26T15:29:58.773Z,0.80
2024-04-26T15:32:45.298Z,0.80
2024-04-26T15:35:33.980Z,0.60
2024-04-26T15:38:20.680Z,0.60
2024-04-26T15:41:10.433Z,0.80
2024-04-26T15:43:57.028Z,0.50
2024-04-26T15:46:45.571Z,0.50
2024-04-26T15:49:31.744Z,0.70
2024-04-26T15:52:18.164Z,0.50
2024-04-26T15:55:04.847Z,0.70
2024-04-26T15:57:52.400Z,0.90
2024-04-26T16:00:39.026Z,0.70
2024-04-26T16:03:25.349Z,0.70
2024-04-26T16:06:11.575Z,0.80
2024-04-26T16:08:58.011Z,1.00
2024-04-26T16:11:44.549Z,0.70
2024-04-26T16:14:30.647Z,0.70
2024-04-26T16:17:18.726Z,0.80
2024-04-26T16:20:10.252Z,0.80
2024-04-26T16:22:56.810Z,0.70
2024-04-26T16:25:44.187Z,0.90
2024-04-26T16:28:30.719Z,0.80
2024-04-26T16:31:20.080Z,0.70
2024-04-26T16:34:06.479Z,0.90
2024-04-26T16:36:53.282Z,1.00
2024-04-26T16:39:42.319Z,0.80
2024-04-26T16:42:32.265Z,0.80
2024-04-26T16:45:18.288Z,1.00
2024-04-26T16:48:05.104Z,0.90
2024-04-26T16:50:51.731Z,0.60
2024-04-26T16:53:40.323Z,0.80
2024-04-26T16:56:53.929Z,1.00
2024-04-26T16:59:42.326Z,0.80
2024-04-26T17:02:28.893Z,0.50
2024-04-26T17:05:15.101Z,0.70
2024-04-26T17:08:01.915Z,0.80
2024-04-26T17:10:48.140Z,1.20
2024-04-26T17:13:37.210Z,0.80
2024-04-26T17:16:23.667Z,0.80
2024-04-26T17:19:10.123Z,1.10
2024-04-26T17:21:56.327Z,0.70
2024-04-26T17:24:45.222Z,0.90
2024-04-26T17:27:31.288Z,0.90
2024-04-26T17:30:17.559Z,1.10
2024-04-26T17:33:04.768Z,1.20
2024-04-26T17:35:51.453Z,1.30
2024-04-26T17:38:44.851Z,1.10
2024-04-26T17:41:39.175Z,1.20
2024-04-26T17:44:26.443Z,0.60
2024-04-26T17:47:12.502Z,1.10
2024-04-26T17:49:58.701Z,1.20
2024-04-26T17:52:44.931Z,1.40
2024-04-26T17:55:31.438Z,1.40
2024-04-26T17:58:20.645Z,1.60
2024-04-26T18:01:06.755Z,1.60
2024-04-26T18:03:53.062Z,1.60
2024-04-26T18:06:39.349Z,1.40
2024-04-26T18:09:25.565Z,1.30
2024-04-26T18:12:11.605Z,1.30
2024-04-26T18:14:57.594Z,1.70
2024-04-26T18:17:44.168Z,1.70
2024-04-26T18:20:30.674Z,1.80
2024-04-26T18:23:16.942Z,1.70
2024-04-26T18:26:09.772Z,1.40
2024-04-26T18:28:57.134Z,1.80
2024-04-26T18:31:46.411Z,2.20
2024-04-26T18:34:32.461Z,1.90
2024-04-26T18:37:18.666Z,1.60
2024-04-26T18:40:05.183Z,1.80
2024-04-26T18:42:54.371Z,2.00
2024-04-26T18:45:40.804Z,2.00
2024-04-26T18:48:31.545Z,2.40
2024-04-26T18:51:20.487Z,2.60
2024-04-26T18:54:08.688Z,2.20
2024-04-26T18:56:55.086Z,2.10
2024-04-26T18:59:40.974Z,2.30
2024-04-26T19:02:27.208Z,2.00
2024-04-26T19:05:13.747Z,2.00
2024-04-26T19:08:00.262Z,2.80
2024-04-26T19:10:46.471Z,2.90
2024-04-26T19:13:35.064Z,2.60
2024-04-26T19:16:22.613Z,2.70
2024-04-26T19:19:14.162Z,2.50
2024-04-26T19:22:00.773Z,2.70
2024-04-26T19:24:46.975Z,2.80
2024-04-26T19:27:33.239Z,2.90
2024-04-26T19:30:20.439Z,3.40
2024-04-26T19:33:12.254Z,3.20
2024-04-26T19:36:01.776Z,3.40
2024-04-26T19:38:49.417Z,3.60
2024-04-26T19:41:44.522Z,3.80
2024-04-26T19:44:31.651Z,4.60
2024-04-26T19:47:18.117Z,4.00
2024-04-26T19:50:04.981Z,4.20
2024-04-26T19:53:09.705Z,3.90
2024-04-26T19:56:19.104Z,4.40
2024-04-26T19:59:06.170Z,3.30
2024-04-26T20:01:54.966Z,3.60
2024-04-26T20:04:41.273Z,4.90
2024-04-26T20:07:27.814Z,3.50
2024-04-26T20:10:16.144Z,4.00
2024-04-26T20:13:05.637Z,2.90
2024-04-26T20:15:51.658Z,3.40
2024-04-26T20:18:38.254Z,3.50
2024-04-26T20:21:28.551Z,3.50
2024-04-26T20:24:14.760Z,3.50
2024-04-26T20:27:00.988Z,3.50
2024-04-26T20:29:47.345Z,2.60
2024-04-26T20:32:33.528Z,2.70
2024-04-26T20:35:20.390Z,3.20
2024-04-26T20:38:06.193Z,2.80
2024-04-26T20:40:52.632Z,2.70
2024-04-26T20:43:39.413Z,3.00
2024-04-26T20:46:25.990Z,2.90
2024-04-26T20:49:18.100Z,3.30
2024-04-26T20:52:05.480Z,2.20
2024-04-26T20:54:53.674Z,2.60
2024-04-26T20:57:39.711Z,2.70
2024-04-26T21:00:25.907Z,3.00
2024-04-26T21:03:12.098Z,2.80
2024-04-26T21:06:03.640Z,3.20
2024-04-26T21:08:50.143Z,2.60
2024-04-26T21:11:36.233Z,2.20
2024-04-26T21:14:25.593Z,3.20
2024-04-26T21:17:16.827Z,2.30
2024-04-26T21:20:06.183Z,2.70
2024-04-26T21:22:52.380Z,3.40
2024-04-26T21:25:38.886Z,3.40
2024-04-26T21:28:26.610Z,3.30
2024-04-26T21:31:19.841Z,2.90
2024-04-26T21:34:06.146Z,3.30
2024-04-26T21:36:52.237Z,3.10
2024-04-26T21:39:38.582Z,3.10
2024-04-26T21:42:25.055Z,3.40
2024-04-26T21:45:11.275Z,3.20
2024-04-26T21:47:57.725Z,3.40
2024-04-26T21:50:45.552Z,3.60
2024-04-26T21:53:31.830Z,3.10
2024-04-26T21:56:18.946Z,4.00
2024-04-26T21:59:14.340Z,3.80
2024-04-26T22:02:03.543Z,3.70
2024-04-26T22:04:50.081Z,3.90
2024-04-26T22:07:36.530Z,4.00
2024-04-26T22:10:23.758Z,3.20
2024-04-26T22:13:12.185Z,3.80
2024-04-26T22:16:00.367Z,4.00
2024-04-26T22:18:46.736Z,4.10
2024-04-26T22:21:32.861Z,4.10
2024-04-26T22:24:19.031Z,3.90
2024-04-26T22:27:06.294Z,4.30
2024-04-26T22:29:52.347Z,3.90
2024-04-26T22:32:38.742Z,4.30
2024-04-26T22:35:24.815Z,4.90
2024-04-26T22:38:11.898Z,5.10
2024-04-26T22:40:58.025Z,4.80
2024-04-26T22:43:43.969Z,5.00
2024-04-26T22:46:32.550Z,5.40
2024-04-26T22:49:24.446Z,4.40
2024-04-26T22:52:12.870Z,4.20
2024-04-26T22:54:58.870Z,3.70
2024-04-26T22:57:45.338Z,4.80
2024-04-26T23:00:31.413Z,6.40
2024-04-26T23:03:18.156Z,5.70
2024-04-26T23:06:05.592Z,5.30
2024-04-26T23:08:51.978Z,6.10
2024-04-26T23:11:38.493Z,5.70
2024-04-26T23:14:25.250Z,5.20
2024-04-26T23:17:11.460Z,6.50
2024-04-26T23:19:59.134Z,5.80
2024-04-26T23:22:45.595Z,5.60
2024-04-26T23:25:31.973Z,5.90
2024-04-26T23:28:18.319Z,5.50
2024-04-26T23:31:05.965Z,5.80
2024-04-26T23:34:17.639Z,6.60
2024-04-26T23:37:03.687Z,5.70
2024-04-26T23:39:49.957Z,5.40
2024-04-26T23:42:36.349Z,5.90
2024-04-26T23:45:23.743Z,5.70
2024-04-26T23:48:11.772Z,5.80
2024-04-26T23:51:00.259Z,6.80
2024-04-26T23:53:46.277Z,7.00
2024-04-26T23:56:32.403Z,6.90
2024-04-26T23:59:18.623Z,6.80
